createdAt,value
2019-02-24T00:01:47.238Z,103561.28
2019-02-24T00:04:17.641Z,103560.43
2019-02-24T00:06:47.314Z,103563.37
2019-02-24T00:09:16.999Z,103558.68
2019-02-24T00:11:46.617Z,103546.13
2019-02-24T00:14:16.461Z,103545.80
2019-02-24T00:16:46.087Z,103555.87
2019-02-24T00:19:15.904Z,103544.27
2019-02-24T00:21:45.556Z,103535.56
2019-02-24T00:24:15.174Z,103527.64
2019-02-24T00:26:45.351Z,103532.72
2019-02-24T00:29:15.189Z,103529.78
2019-02-24T00:31:45.548Z,103535.27
2019-02-24T00:34:15.204Z,103524.82
2019-02-24T00:36:45.562Z,103506.39
2019-02-24T00:39:15.178Z,103530.30
2019-02-24T00:41:44.962Z,103510.24
2019-02-24T00:44:14.617Z,103522.38
2019-02-24T00:46:44.352Z,103504.03
2019-02-24T00:49:14.077Z,103529.53
2019-02-24T00:51:43.788Z,103522.95
2019-02-24T00:54:13.669Z,103520.50
2019-02-24T00:56:43.352Z,103515.66
2019-02-24T00:59:13.269Z,103548.79
2019-02-24T01:01:42.884Z,103491.42
2019-02-24T01:04:12.502Z,103496.91
2019-02-24T01:06:42.417Z,103491.40
2019-02-24T01:09:12.047Z,103487.63
2019-02-24T01:11:41.694Z,103467.94
2019-02-24T01:14:11.617Z,103466.28
2019-02-24T01:16:41.526Z,103468.80
2019-02-24T01:19:11.212Z,103454.13
2019-02-24T01:21:40.893Z,103437.34
2019-02-24T01:24:10.510Z,103423.07
2019-02-24T01:26:40.128Z,103439.31
2019-02-24T01:29:09.786Z,103423.84
2019-02-24T01:31:39.401Z,103420.94
2019-02-24T01:34:09.480Z,103421.02
2019-02-24T01:36:39.374Z,103415.22
2019-02-24T01:39:08.998Z,103419.92
2019-02-24T01:41:38.995Z,103406.63
2019-02-24T01:44:08.699Z,103403.73
2019-02-24T01:46:38.310Z,103413.41
2019-02-24T01:49:08.686Z,103408.91
2019-02-24T01:51:38.347Z,103398.02
2019-02-24T01:54:08.123Z,103403.91
2019-02-24T01:56:37.733Z,103379.23
2019-02-24T01:59:07.389Z,103401.53
2019-02-24T02:01:36.997Z,103409.92
2019-02-24T02:04:06.600Z,103403.27
2019-02-24T02:06:36.394Z,103417.67
2019-02-24T02:09:06.444Z,103405.05
2019-02-24T02:11:36.052Z,103408.42
2019-02-24T02:14:05.827Z,103414.23
2019-02-24T02:16:35.453Z,103406.23
2019-02-24T02:19:05.056Z,103412.91
2019-02-24T02:21:34.782Z,103402.86
2019-02-24T02:24:04.460Z,103394.02
2019-02-24T02:26:34.071Z,103399.87
2019-02-24T02:29:03.758Z,103388.56
2019-02-24T02:31:33.694Z,103387.73
2019-02-24T02:34:03.307Z,103393.13
2019-02-24T02:36:32.966Z,103377.66
2019-02-24T02:39:02.649Z,103371.70
2019-02-24T02:41:32.275Z,103369.98
2019-02-24T02:44:01.927Z,103367.48
2019-02-24T02:46:31.539Z,103371.63
2019-02-24T02:49:01.156Z,103377.45
2019-02-24T02:51:31.710Z,103371.56
2019-02-24T02:54:01.322Z,103363.50
2019-02-24T02:56:31.024Z,103342.14
2019-02-24T02:59:00.678Z,103360.23
2019-02-24T03:01:30.668Z,103356.41
2019-02-24T03:04:00.278Z,103345.91
2019-02-24T03:06:40.745Z,103339.21
2019-02-24T03:09:11.029Z,103334.98
2019-02-24T03:11:40.764Z,103342.06
2019-02-24T03:14:10.412Z,103344.58
2019-02-24T03:16:40.201Z,103333.73
2019-02-24T03:19:10.092Z,103337.09
2019-02-24T03:21:39.751Z,103350.91
2019-02-24T03:24:09.548Z,103350.52
2019-02-24T03:26:39.157Z,103351.77
2019-02-24T03:29:08.892Z,103348.41
2019-02-24T03:31:38.610Z,103345.91
2019-02-24T03:34:08.220Z,103350.53
2019-02-24T03:36:37.865Z,103346.34
2019-02-24T03:39:07.494Z,103350.59
2019-02-24T03:41:37.203Z,103365.69
2019-02-24T03:44:06.963Z,103357.33
2019-02-24T03:46:36.572Z,103374.05
2019-02-24T03:49:06.185Z,103353.96
2019-02-24T03:51:35.857Z,103350.27
2019-02-24T03:54:06.334Z,103345.25
2019-02-24T03:56:36.123Z,103334.80
2019-02-24T03:59:14.641Z,103331.05
2019-02-24T04:01:37.596Z,103328.14
2019-02-24T04:04:07.287Z,103333.62
2019-02-24T04:06:36.965Z,103331.51
2019-02-24T04:09:06.842Z,103326.03
2019-02-24T04:11:37.397Z,103346.52
2019-02-24T04:14:07.417Z,103326.86
2019-02-24T04:16:38.069Z,103340.25
2019-02-24T04:19:08.149Z,103327.34
2019-02-24T04:21:38.398Z,103342.02
2019-02-24T04:24:08.146Z,103314.78
2019-02-24T04:26:37.867Z,103311.87
2019-02-24T04:29:07.515Z,103316.11
2019-02-24T04:31:37.131Z,103300.23
2019-02-24T04:34:07.412Z,103311.71
2019-02-24T04:36:37.177Z,103300.84
2019-02-24T04:39:06.962Z,103306.53
2019-02-24T04:41:36.639Z,103307.27
2019-02-24T04:44:06.317Z,103288.34
2019-02-24T04:46:36.210Z,103291.19
2019-02-24T04:49:05.821Z,103285.69
2019-02-24T04:51:36.143Z,103266.38
2019-02-24T04:54:05.925Z,103296.45
2019-02-24T04:56:36.594Z,103277.63
2019-02-24T04:59:06.294Z,103275.09
2019-02-24T05:01:35.983Z,103273.28
2019-02-24T05:04:05.866Z,103283.00
2019-02-24T05:06:35.687Z,103289.98
2019-02-24T05:09:05.732Z,103302.48
2019-02-24T05:11:35.544Z,103271.95
2019-02-24T05:14:05.192Z,103286.56
2019-02-24T05:16:34.858Z,103284.96
2019-02-24T05:19:04.540Z,103290.84
2019-02-24T05:21:34.229Z,103281.19
2019-02-24T05:24:03.841Z,103287.09
2019-02-24T05:26:33.467Z,103289.61
2019-02-24T05:29:03.115Z,103282.91
2019-02-24T05:31:32.841Z,103285.36
2019-02-24T05:34:02.809Z,103287.87
2019-02-24T05:36:32.825Z,103284.91
2019-02-24T05:39:02.440Z,103292.84
2019-02-24T05:41:32.047Z,103282.77
2019-02-24T05:44:01.717Z,103276.04
2019-02-24T05:46:31.897Z,103288.92
2019-02-24T05:49:01.516Z,103301.48
2019-02-24T05:51:31.161Z,103303.97
2019-02-24T05:54:00.773Z,103291.89
2019-02-24T05:56:30.388Z,103311.68
2019-02-24T05:59:00.816Z,103305.45
2019-02-24T06:01:30.602Z,103302.09
2019-02-24T06:04:01.513Z,103307.52
2019-02-24T06:06:31.680Z,103307.52
2019-02-24T06:09:01.300Z,103289.12
2019-02-24T06:11:30.908Z,103311.41
2019-02-24T06:14:00.551Z,103308.25
2019-02-24T06:16:30.847Z,103303.95
2019-02-24T06:19:00.449Z,103309.60
2019-02-24T06:21:30.116Z,103304.30
2019-02-24T06:23:59.805Z,103306.09
2019-02-24T06:26:30.276Z,103299.50
2019-02-24T06:29:00.471Z,103296.77
2019-02-24T06:31:30.084Z,103312.00
2019-02-24T06:33:59.688Z,103301.61
2019-02-24T06:36:29.356Z,103300.42
2019-02-24T06:39:00.429Z,103291.72
2019-02-24T06:41:30.046Z,103294.81
2019-02-24T06:43:59.726Z,103295.86
2019-02-24T06:46:29.674Z,103298.45
2019-02-24T06:49:00.166Z,103282.27
2019-02-24T06:51:29.820Z,103287.36
2019-02-24T06:53:59.919Z,103297.43
2019-02-24T06:56:29.528Z,103290.75
2019-02-24T06:58:59.222Z,103290.34
2019-02-24T07:01:29.103Z,103284.91
2019-02-24T07:03:58.905Z,103293.33
2019-02-24T07:06:29.483Z,103278.34
2019-02-24T07:08:59.091Z,103304.30
2019-02-24T07:11:28.711Z,103287.95
2019-02-24T07:13:58.483Z,103292.56
2019-02-24T07:16:28.092Z,103287.55
2019-02-24T07:18:57.704Z,103283.76
2019-02-24T07:21:28.277Z,103292.06
2019-02-24T07:23:57.888Z,103272.67
2019-02-24T07:26:27.669Z,103270.05
2019-02-24T07:29:00.370Z,103276.73
2019-02-24T07:31:30.162Z,103262.95
2019-02-24T07:33:59.774Z,103284.91
2019-02-24T07:36:29.510Z,103295.04
2019-02-24T07:39:00.893Z,103276.27
2019-02-24T07:41:30.876Z,103276.34
2019-02-24T07:44:00.520Z,103284.39
2019-02-24T07:46:30.135Z,103286.98
2019-02-24T07:48:59.758Z,103273.75
2019-02-24T07:51:29.424Z,103275.19
2019-02-24T07:53:59.214Z,103250.67
2019-02-24T07:56:28.825Z,103265.53
2019-02-24T07:58:58.471Z,103275.72
2019-02-24T08:01:29.155Z,103276.31
2019-02-24T08:04:01.035Z,103270.58
2019-02-24T08:06:31.108Z,103261.19
2019-02-24T08:09:00.716Z,103271.14
2019-02-24T08:11:30.331Z,103265.52
2019-02-24T08:13:59.991Z,103271.63
2019-02-24T08:16:29.892Z,103255.08
2019-02-24T08:18:59.504Z,103274.20
2019-02-24T08:21:29.148Z,103266.41
2019-02-24T08:23:58.769Z,103281.70
2019-02-24T08:26:28.385Z,103275.46
2019-02-24T08:28:58.215Z,103279.36
2019-02-24T08:31:27.846Z,103268.91
2019-02-24T08:33:57.464Z,103277.37
2019-02-24T08:36:27.119Z,103269.39
2019-02-24T08:38:56.803Z,103284.55
2019-02-24T08:41:26.771Z,103274.44
2019-02-24T08:43:56.613Z,103253.42
2019-02-24T08:46:27.314Z,103281.33
2019-02-24T08:48:57.003Z,103277.20
2019-02-24T08:51:26.703Z,103278.59
2019-02-24T08:53:56.757Z,103281.46
2019-02-24T08:56:26.485Z,103281.84
2019-02-24T08:58:56.138Z,103280.14
2019-02-24T09:01:25.753Z,103282.22
2019-02-24T09:03:55.379Z,103284.40
2019-02-24T09:06:26.303Z,103289.96
2019-02-24T09:08:55.734Z,103296.30
2019-02-24T09:11:25.353Z,103292.14
2019-02-24T09:13:55.177Z,103294.25
2019-02-24T09:16:24.911Z,103295.92
2019-02-24T09:18:54.541Z,103282.94
2019-02-24T09:21:24.341Z,103293.52
2019-02-24T09:23:54.123Z,103294.41
2019-02-24T09:26:23.918Z,103285.17
2019-02-24T09:28:53.766Z,103291.55
2019-02-24T09:31:23.394Z,103303.41
2019-02-24T09:33:53.094Z,103290.88
2019-02-24T09:36:22.756Z,103304.48
2019-02-24T09:38:52.989Z,103297.44
2019-02-24T09:41:24.190Z,103305.48
2019-02-24T09:43:53.866Z,103305.91
2019-02-24T09:46:23.487Z,103300.03
2019-02-24T09:48:53.483Z,103301.31
2019-02-24T09:51:23.143Z,103311.48
2019-02-24T09:53:52.878Z,103294.19
2019-02-24T09:56:22.588Z,103306.39
2019-02-24T09:58:52.252Z,103316.10
2019-02-24T10:01:21.875Z,103315.30
2019-02-24T10:03:51.499Z,103327.98
2019-02-24T10:06:21.234Z,103319.58
2019-02-24T10:08:50.868Z,103329.74
2019-02-24T10:11:20.498Z,103324.30
2019-02-24T10:13:54.489Z,103316.36
2019-02-24T10:16:25.278Z,103318.53
2019-02-24T10:19:01.111Z,103313.50
2019-02-24T10:21:30.958Z,103330.02
2019-02-24T10:24:00.639Z,103322.02
2019-02-24T10:26:31.719Z,103327.97
2019-02-24T10:29:04.212Z,103330.98
2019-02-24T10:31:41.875Z,103323.84
2019-02-24T10:34:28.436Z,103314.16
2019-02-24T10:37:10.167Z,103310.81
2019-02-24T10:39:51.377Z,103303.25
2019-02-24T10:42:34.163Z,103312.20
2019-02-24T10:45:14.909Z,103309.28
2019-02-24T10:47:57.416Z,103308.44
2019-02-24T10:50:28.911Z,103310.55
2019-02-24T10:52:58.701Z,103302.92
2019-02-24T10:55:28.319Z,103314.78
2019-02-24T10:57:58.169Z,103315.21
2019-02-24T11:00:27.792Z,103314.37
2019-02-24T11:02:57.470Z,103300.44
2019-02-24T11:05:27.131Z,103298.32
2019-02-24T11:07:57.778Z,103293.69
2019-02-24T11:10:28.357Z,103296.67
2019-02-24T11:12:58.142Z,103290.75
2019-02-24T11:15:27.831Z,103293.70
2019-02-24T11:17:57.460Z,103280.61
2019-02-24T11:20:27.779Z,103295.42
2019-02-24T11:22:57.682Z,103300.91
2019-02-24T11:25:27.305Z,103305.15
2019-02-24T11:27:57.028Z,103307.25
2019-02-24T11:30:26.831Z,103308.12
2019-02-24T11:32:56.720Z,103308.94
2019-02-24T11:35:26.410Z,103314.02
2019-02-24T11:37:57.206Z,103304.69
2019-02-24T11:40:26.865Z,103318.23
2019-02-24T11:42:56.532Z,103314.41
2019-02-24T11:45:26.396Z,103306.78
2019-02-24T11:47:56.097Z,103293.20
2019-02-24T11:50:26.158Z,103288.09
2019-02-24T11:52:55.782Z,103293.97
2019-02-24T11:55:25.408Z,103296.03
2019-02-24T11:57:55.067Z,103287.97
2019-02-24T12:00:24.700Z,103289.61
2019-02-24T12:02:54.598Z,103286.59
2019-02-24T12:05:24.263Z,103295.41
2019-02-24T12:07:53.892Z,103302.53
2019-02-24T12:10:23.519Z,103296.94
2019-02-24T12:12:53.208Z,103293.46
2019-02-24T12:15:22.832Z,103289.14
2019-02-24T12:17:52.464Z,103288.23
2019-02-24T12:20:22.109Z,103273.25
2019-02-24T12:22:51.920Z,103280.80
2019-02-24T12:25:21.721Z,103267.14
2019-02-24T12:27:51.377Z,103264.52
2019-02-24T12:30:21.178Z,103260.52
2019-02-24T12:32:50.808Z,103252.35
2019-02-24T12:35:20.500Z,103241.98
2019-02-24T12:37:50.968Z,103252.30
2019-02-24T12:40:20.600Z,103254.35
2019-02-24T12:42:50.284Z,103236.17
2019-02-24T12:45:19.946Z,103250.70
2019-02-24T12:47:49.518Z,103258.90
2019-02-24T12:50:19.350Z,103238.84
2019-02-24T12:52:50.058Z,103231.89
2019-02-24T12:55:19.979Z,103246.38
2019-02-24T12:57:49.779Z,103248.03
2019-02-24T13:00:25.816Z,103236.39
2019-02-24T13:02:55.448Z,103244.77
2019-02-24T13:05:28.262Z,103236.41
2019-02-24T13:07:57.898Z,103239.84
2019-02-24T13:10:27.629Z,103230.02
2019-02-24T13:12:57.438Z,103229.63
2019-02-24T13:15:27.863Z,103229.17
2019-02-24T13:17:57.485Z,103209.26
2019-02-24T13:20:27.815Z,103220.00
2019-02-24T13:22:57.621Z,103200.30
2019-02-24T13:25:27.623Z,103206.97
2019-02-24T13:27:57.488Z,103200.47
2019-02-24T13:30:27.122Z,103180.16
2019-02-24T13:32:56.817Z,103191.16
2019-02-24T13:35:26.654Z,103186.98
2019-02-24T13:37:56.280Z,103201.41
2019-02-24T13:40:25.901Z,103195.73
2019-02-24T13:42:55.557Z,103196.32
2019-02-24T13:45:26.886Z,103185.30
2019-02-24T13:47:56.641Z,103206.91
2019-02-24T13:50:26.335Z,103203.13
2019-02-24T13:52:55.947Z,103210.50
2019-02-24T13:55:27.245Z,103205.12
2019-02-24T13:57:58.547Z,103194.44
2019-02-24T14:00:28.187Z,103212.05
2019-02-24T14:02:57.990Z,103214.66
2019-02-24T14:05:27.757Z,103211.70
2019-02-24T14:07:58.643Z,103224.34
2019-02-24T14:10:28.356Z,103206.64
2019-02-24T14:12:58.994Z,103220.34
2019-02-24T14:15:28.977Z,103216.53
2019-02-24T14:17:58.600Z,103216.45
2019-02-24T14:20:29.794Z,103212.22
2019-02-24T14:22:59.412Z,103219.79
2019-02-24T14:25:29.042Z,103213.98
2019-02-24T14:27:58.818Z,103212.61
2019-02-24T14:30:29.416Z,103213.59
2019-02-24T14:32:59.344Z,103205.01
2019-02-24T14:35:29.008Z,103188.06
2019-02-24T14:37:58.720Z,103225.75
2019-02-24T14:40:28.341Z,103188.05
2019-02-24T14:42:58.071Z,103186.14
2019-02-24T14:45:27.695Z,103181.80
2019-02-24T14:47:57.458Z,103190.77
2019-02-24T14:50:27.139Z,103179.35
2019-02-24T14:52:56.926Z,103186.39
2019-02-24T14:55:28.869Z,103198.53
2019-02-24T14:57:59.554Z,103172.22
2019-02-24T15:00:29.457Z,103172.22
2019-02-24T15:03:04.750Z,103187.16
2019-02-24T15:05:34.652Z,103187.14
2019-02-24T15:08:04.281Z,103183.39
2019-02-24T15:10:34.082Z,103180.66
2019-02-24T15:13:03.823Z,103167.99
2019-02-24T15:15:35.651Z,103169.99
2019-02-24T15:18:06.284Z,103164.80
2019-02-24T15:20:35.918Z,103166.27
2019-02-24T15:23:06.836Z,103175.55
2019-02-24T15:25:36.948Z,103165.96
2019-02-24T15:28:06.585Z,103171.09
2019-02-24T15:30:37.778Z,103176.57
2019-02-24T15:33:08.077Z,103178.19
2019-02-24T15:35:37.812Z,103183.58
2019-02-24T15:38:10.338Z,103176.61
2019-02-24T15:40:40.768Z,103179.36
2019-02-24T15:43:10.427Z,103166.81
2019-02-24T15:45:40.130Z,103159.75
2019-02-24T15:48:10.197Z,103151.40
2019-02-24T15:50:39.921Z,103155.73
2019-02-24T15:53:09.535Z,103152.87
2019-02-24T15:55:39.212Z,103152.14
2019-02-24T15:58:08.847Z,103156.43
2019-02-24T16:00:38.560Z,103150.92
2019-02-24T16:03:08.384Z,103152.62
2019-02-24T16:05:38.018Z,103148.48
2019-02-24T16:08:07.969Z,103165.11
2019-02-24T16:10:37.669Z,103156.64
2019-02-24T16:13:16.499Z,103152.91
2019-02-24T16:15:39.059Z,103171.17
2019-02-24T16:18:08.729Z,103152.16
2019-02-24T16:20:39.642Z,103155.16
2019-02-24T16:23:09.348Z,103154.76
2019-02-24T16:25:39.186Z,103157.75
2019-02-24T16:28:08.808Z,103153.98
2019-02-24T16:30:38.549Z,103151.05
2019-02-24T16:33:10.793Z,103147.67
2019-02-24T16:35:39.544Z,103150.22
2019-02-24T16:38:09.162Z,103136.28
2019-02-24T16:40:39.866Z,103132.05
2019-02-24T16:43:09.495Z,103144.78
2019-02-24T16:45:39.402Z,103146.50
2019-02-24T16:48:11.716Z,103141.01
2019-02-24T16:50:40.502Z,103144.40
2019-02-24T16:53:11.846Z,103140.60
2019-02-24T16:55:41.642Z,103129.60
2019-02-24T16:58:11.268Z,103120.74
2019-02-24T17:00:41.035Z,103138.09
2019-02-24T17:03:19.645Z,103156.28
2019-02-24T17:05:46.174Z,103141.90
2019-02-24T17:08:16.010Z,103136.42
2019-02-24T17:10:45.748Z,103155.02
2019-02-24T17:13:15.379Z,103159.25
2019-02-24T17:15:45.117Z,103173.65
2019-02-24T17:18:14.812Z,103136.87
2019-02-24T17:20:44.452Z,103133.48
2019-02-24T17:23:14.952Z,103141.09
2019-02-24T17:25:44.652Z,103128.41
2019-02-24T17:28:14.355Z,103136.88
2019-02-24T17:30:44.915Z,103128.85
2019-02-24T17:33:15.318Z,103140.69
2019-02-24T17:35:44.948Z,103133.91
2019-02-24T17:38:14.647Z,103123.78
2019-02-24T17:40:44.549Z,103127.98
2019-02-24T17:43:14.300Z,103135.59
2019-02-24T17:45:44.926Z,103143.62
2019-02-24T17:48:14.703Z,103146.98
2019-02-24T17:50:44.676Z,103137.67
2019-02-24T17:53:14.465Z,103156.25
2019-02-24T17:55:44.296Z,103150.33
2019-02-24T17:58:14.047Z,103139.77
2019-02-24T18:00:51.166Z,103143.97
2019-02-24T18:03:21.134Z,103165.94
2019-02-24T18:05:50.937Z,103151.55
2019-02-24T18:08:39.172Z,103146.48
2019-02-24T18:11:08.803Z,103155.75
2019-02-24T18:13:38.429Z,103139.70
2019-02-24T18:16:08.091Z,103144.77
2019-02-24T18:18:40.021Z,103156.19
2019-02-24T18:21:14.683Z,103165.01
2019-02-24T18:23:47.297Z,103151.49
2019-02-24T18:26:16.995Z,103146.78
2019-02-24T18:28:48.004Z,103138.33
2019-02-24T18:31:17.652Z,103139.14
2019-02-24T18:33:49.978Z,103159.78
2019-02-24T18:36:19.876Z,103154.73
2019-02-24T18:38:49.568Z,103126.03
2019-02-24T18:44:18.164Z,103132.33
2019-02-24T18:46:49.305Z,103131.03
2019-02-24T18:49:22.878Z,103136.09
2019-02-24T18:51:52.532Z,103126.82
2019-02-24T18:54:22.163Z,103121.30
2019-02-24T18:56:52.186Z,103133.09
2019-02-24T18:59:21.932Z,103131.81
2019-02-24T19:01:51.501Z,103127.16
2019-02-24T19:04:21.497Z,103126.70
2019-02-24T19:06:52.707Z,103159.16
2019-02-24T19:09:24.087Z,103131.31
2019-02-24T19:11:54.798Z,103136.80
2019-02-24T19:14:25.712Z,103138.87
2019-02-24T19:16:57.283Z,103126.22
2019-02-24T19:19:26.987Z,103116.48
2019-02-24T19:21:56.684Z,103126.14
2019-02-24T19:24:26.324Z,103130.30
2019-02-24T19:26:56.239Z,103135.78
2019-02-24T19:29:25.976Z,103134.52
2019-02-24T19:31:55.606Z,103139.56
2019-02-24T19:34:25.704Z,103152.13
2019-02-24T19:36:55.401Z,103136.09
2019-02-24T19:39:25.054Z,103136.05
2019-02-24T19:41:54.688Z,103134.33
2019-02-24T19:44:24.514Z,103140.62
2019-02-24T19:46:54.144Z,103119.13
2019-02-24T19:49:23.768Z,103131.30
2019-02-24T19:51:53.459Z,103142.21
2019-02-24T19:54:23.665Z,103122.00
2019-02-24T19:56:54.933Z,103123.62
2019-02-24T19:59:24.767Z,103119.41
2019-02-24T20:01:54.383Z,103132.41
2019-02-24T20:04:24.027Z,103134.51
2019-02-24T20:06:53.898Z,103143.33
2019-02-24T20:09:23.696Z,103160.12
2019-02-24T20:11:53.327Z,103155.09
2019-02-24T20:14:31.367Z,103147.52
2019-02-24T20:17:03.024Z,103157.16
2019-02-24T20:19:34.391Z,103163.00
2019-02-24T20:22:06.258Z,103160.02
2019-02-24T20:24:37.523Z,103170.94
2019-02-24T20:27:09.242Z,103158.28
2019-02-24T20:29:38.972Z,103160.75
2019-02-24T20:32:08.681Z,103161.98
2019-02-24T20:34:40.893Z,103176.25
2019-02-24T20:37:10.519Z,103168.64
2019-02-24T20:39:45.502Z,103158.10
2019-02-24T20:42:22.323Z,103166.09
2019-02-24T20:44:53.864Z,103172.37
2019-02-24T20:47:23.488Z,103168.99
2019-02-24T20:49:53.435Z,103181.61
2019-02-24T20:52:23.103Z,103170.25
2019-02-24T20:54:53.215Z,103186.69
2019-02-24T20:57:23.604Z,103184.58
2019-02-24T20:59:53.271Z,103186.63
2019-02-24T21:02:22.902Z,103194.17
2019-02-24T21:04:52.526Z,103178.11
2019-02-24T21:07:22.250Z,103177.66
2019-02-24T21:09:51.889Z,103183.91
2019-02-24T21:12:21.507Z,103186.39
2019-02-24T21:14:51.175Z,103181.31
2019-02-24T21:17:20.815Z,103191.00
2019-02-24T21:19:50.431Z,103190.93
2019-02-24T21:22:21.469Z,103193.05
2019-02-24T21:24:51.115Z,103190.48
2019-02-24T21:27:20.775Z,103194.20
2019-02-24T21:29:50.431Z,103191.27
2019-02-24T21:32:21.221Z,103191.64
2019-02-24T21:34:50.846Z,103194.53
2019-02-24T21:37:20.515Z,103188.59
2019-02-24T21:39:50.232Z,103190.67
2019-02-24T21:42:20.055Z,103191.48
2019-02-24T21:44:49.740Z,103193.56
2019-02-24T21:47:19.955Z,103189.78
2019-02-24T21:49:49.582Z,103199.83
2019-02-24T21:52:19.668Z,103196.45
2019-02-24T21:54:49.289Z,103204.42
2019-02-24T21:57:18.992Z,103200.61
2019-02-24T21:59:48.923Z,103211.92
2019-02-24T22:02:18.592Z,103207.24
2019-02-24T22:04:48.282Z,103207.23
2019-02-24T22:07:18.442Z,103211.84
2019-02-24T22:09:48.281Z,103208.98
2019-02-24T22:12:17.910Z,103208.13
2019-02-24T22:14:47.600Z,103205.08
2019-02-24T22:17:17.226Z,103204.60
2019-02-24T22:19:46.846Z,103208.33
2019-02-24T22:22:16.505Z,103218.34
2019-02-24T22:24:46.136Z,103221.67
2019-02-24T22:27:18.037Z,103230.89
2019-02-24T22:29:49.945Z,103218.25
2019-02-24T22:32:19.695Z,103215.24
2019-02-24T22:34:50.152Z,103211.00
2019-02-24T22:37:19.815Z,103224.83
2019-02-24T22:39:49.547Z,103221.86
2019-02-24T22:42:19.444Z,103212.19
2019-02-24T22:44:49.596Z,103214.70
2019-02-24T22:47:19.323Z,103211.33
2019-02-24T22:49:51.420Z,103203.73
2019-02-24T22:52:22.407Z,103205.80
2019-02-24T22:54:52.108Z,103199.90
2019-02-24T22:57:22.011Z,103201.60
2019-02-24T22:59:52.165Z,103197.34
2019-02-24T23:02:23.795Z,103192.70
2019-02-24T23:04:55.180Z,103185.89
2019-02-24T23:07:24.952Z,103209.02
2019-02-24T23:09:54.834Z,103182.39
2019-02-24T23:12:24.459Z,103181.45
2019-02-24T23:14:54.141Z,103176.72
2019-02-24T23:17:23.763Z,103175.02
2019-02-24T23:19:53.483Z,103172.86
2019-02-24T23:22:23.254Z,103168.22
2019-02-24T23:24:53.146Z,103161.87
2019-02-24T23:27:22.790Z,103159.72
2019-02-24T23:29:52.458Z,103162.20
2019-02-24T23:32:22.250Z,103162.96
2019-02-24T23:34:51.875Z,103149.11
2019-02-24T23:37:21.578Z,103149.51
2019-02-24T23:39:51.175Z,103145.33
2019-02-24T23:42:20.984Z,103141.50
2019-02-24T23:44:50.730Z,103141.45
2019-02-24T23:47:20.354Z,103155.72
2019-02-24T23:49:49.976Z,103156.97
2019-02-24T23:52:19.632Z,103164.12
2019-02-24T23:54:49.329Z,103154.45
2019-02-24T23:57:18.962Z,103156.13
2019-02-24T23:59:48.638Z,103156.56
